createdAt,value
2022-11-09T00:00:40.007Z,7.3
2022-11-09T00:06:16.129Z,7.3
2022-11-09T00:11:26.934Z,7.4
2022-11-09T00:17:05.447Z,7.4
2022-11-09T00:22:32.516Z,7.3
2022-11-09T00:27:54.868Z,7.4
2022-11-09T00:33:18.325Z,7.6
2022-11-09T00:38:40.455Z,7.6
2022-11-09T00:44:18.244Z,7.7
2022-11-09T00:49:55.854Z,7.7
2022-11-09T00:55:32.304Z,7.6
2022-11-09T01:01:10.022Z,7.6
2022-11-09T01:06:50.373Z,7.8
2022-11-09T01:12:27.936Z,7.8
2022-11-09T01:18:06.698Z,7.7
2022-11-09T01:23:29.040Z,7.8
2022-11-09T01:28:50.522Z,7.8
2022-11-09T01:34:12.743Z,7.8
2022-11-09T01:39:50.023Z,7.9
2022-11-09T01:45:27.045Z,7.9
2022-11-09T01:51:04.714Z,8.1
2022-11-09T01:56:42.964Z,8.1
2022-11-09T02:02:04.317Z,8.2
2022-11-09T02:07:42.219Z,8.3
2022-11-09T02:13:20.139Z,8.3
2022-11-09T02:18:41.583Z,8.1
2022-11-09T02:24:19.358Z,8
2022-11-09T02:35:22.798Z,7.9
2022-11-09T02:40:29.177Z,7.9
2022-11-09T02:46:09.620Z,8
2022-11-09T02:51:31.355Z,8.1
2022-11-09T02:56:53.365Z,8
2022-11-09T03:01:59.979Z,8
2022-11-09T03:07:22.105Z,7.9
2022-11-09T03:12:59.251Z,7.7
2022-11-09T03:18:20.874Z,7.5
2022-11-09T03:23:26.381Z,7.4
2022-11-09T03:28:32.683Z,7.3
2022-11-09T03:33:41.000Z,7.2
2022-11-09T03:38:47.173Z,7.3
2022-11-09T03:43:54.627Z,7.4
2022-11-09T03:49:01.515Z,7.4
2022-11-09T03:54:22.363Z,7.2
2022-11-09T03:59:44.241Z,7.1
2022-11-09T04:04:20.309Z,7.1
2022-11-09T04:09:11.016Z,7.1
2022-11-09T04:14:17.279Z,7.1
2022-11-09T04:19:24.210Z,6.9
2022-11-09T04:24:34.668Z,6.8
2022-11-09T04:29:40.684Z,6.8
2022-11-09T04:35:06.463Z,6.8
2022-11-09T04:39:58.137Z,6.8
2022-11-09T04:45:19.785Z,6.6
2022-11-09T04:50:11.315Z,6.4
2022-11-09T04:55:06.017Z,6.5
2022-11-09T05:00:12.919Z,6.5
2022-11-09T05:05:04.405Z,6.6
2022-11-09T05:09:55.525Z,6.6
2022-11-09T05:19:43.232Z,6.7
2022-11-09T05:24:49.806Z,6.8
2022-11-09T05:30:12.600Z,6.9
2022-11-09T05:35:04.956Z,7
2022-11-09T05:40:13.390Z,7.1
2022-11-09T05:44:49.602Z,7.3
2022-11-09T05:50:46.059Z,7.4
2022-11-09T06:00:11.739Z,7.8
2022-11-09T06:05:03.577Z,7.7
2022-11-09T06:09:55.368Z,7.8
2022-11-09T06:14:37.162Z,8.1
2022-11-09T06:19:13.189Z,8.4
2022-11-09T06:24:09.926Z,8.6
2022-11-09T06:28:46.166Z,8.8
2022-11-09T06:33:38.167Z,8.7
2022-11-09T06:38:17.978Z,8.9
2022-11-09T06:42:54.840Z,8.8
2022-11-09T06:47:46.828Z,9.1
2022-11-09T06:52:24.730Z,9.5
2022-11-09T06:56:45.197Z,9.8
2022-11-09T07:01:05.334Z,10
2022-11-09T07:06:03.547Z,10.3
2022-11-09T07:10:56.959Z,10.3
2022-11-09T07:15:48.661Z,10.8
2022-11-09T07:20:39.969Z,11
2022-11-09T07:25:17.977Z,11.4
2022-11-09T07:29:37.912Z,11.9
2022-11-09T07:35:06.770Z,12.7
2022-11-09T07:39:32.656Z,12.9
2022-11-09T07:43:57.984Z,13
2022-11-09T07:48:48.893Z,12.8
2022-11-09T07:53:40.535Z,13.2
2022-11-09T07:58:21.924Z,13.4
2022-11-09T08:03:14.083Z,13.3
2022-11-09T08:07:49.297Z,13.8
2022-11-09T08:12:25.366Z,14.3
2022-11-09T08:17:16.423Z,14.7
2022-11-09T08:22:08.555Z,15.3
2022-11-09T08:26:50.318Z,14.9
2022-11-09T08:31:28.070Z,15.2
2022-11-09T08:36:09.535Z,15.3
2022-11-09T08:40:45.978Z,14.4
2022-11-09T08:45:20.755Z,13.9
2022-11-09T08:49:56.469Z,15.6
2022-11-09T08:54:47.984Z,15.1
2022-11-09T08:59:54.816Z,14.9
2022-11-09T09:05:02.740Z,15.8
2022-11-09T09:14:52.391Z,16.1
2022-11-09T09:19:48.897Z,15.9
2022-11-09T09:24:40.612Z,16.3
2022-11-09T09:29:47.686Z,16.6
2022-11-09T09:35:15.224Z,17.4
2022-11-09T09:45:47.433Z,17.3
2022-11-09T09:51:10.331Z,18.1
2022-11-09T09:56:53.970Z,16.9
2022-11-09T10:02:16.447Z,17.9
2022-11-09T10:07:39.595Z,17.4
2022-11-09T10:13:07.509Z,16.8
2022-11-09T10:18:45.405Z,18.3
2022-11-09T10:24:22.929Z,18
2022-11-09T10:36:41.589Z,18.4
2022-11-09T10:42:04.502Z,18.8
2022-11-09T10:47:43.040Z,17.8
2022-11-09T10:53:21.268Z,18.8
2022-11-09T10:59:23.104Z,18.4
2022-11-09T11:04:45.737Z,19.1
2022-11-09T11:09:55.493Z,19.5
2022-11-09T11:15:30.884Z,19.8
2022-11-09T11:20:38.835Z,19.4
2022-11-09T11:26:22.449Z,19.6
2022-11-09T11:32:00.025Z,19.6
2022-11-09T11:38:10.913Z,20.1
2022-11-09T11:43:48.537Z,18.4
2022-11-09T11:49:59.817Z,19.4
2022-11-09T11:55:44.588Z,18.9
2022-11-09T12:06:33.950Z,19.3
2022-11-09T12:12:12.705Z,19.7
2022-11-09T12:17:51.421Z,19.8
2022-11-09T12:23:19.153Z,20
2022-11-09T12:29:02.482Z,20.3
2022-11-09T12:34:14.984Z,19.9
2022-11-09T12:39:37.280Z,20.3
2022-11-09T12:45:02.226Z,20.4
2022-11-09T12:50:24.346Z,19.6
2022-11-09T12:55:45.556Z,19.7
2022-11-09T13:01:11.304Z,20.3
2022-11-09T13:06:35.437Z,19.9
2022-11-09T13:12:04.505Z,20.2
2022-11-09T13:17:26.198Z,20.1
2022-11-09T13:23:17.579Z,19.6
2022-11-09T13:29:29.657Z,19.9
2022-11-09T13:35:08.899Z,19.2
2022-11-09T13:40:46.992Z,19.1
2022-11-09T13:46:12.102Z,19.2
2022-11-09T13:57:00.450Z,18.8
2022-11-09T14:02:42.753Z,18.8
2022-11-09T14:08:21.668Z,18.4
2022-11-09T14:14:03.555Z,17.8
2022-11-09T14:19:41.722Z,17.4
2022-11-09T14:25:19.382Z,17.6
2022-11-09T14:30:57.585Z,17.6
2022-11-09T14:36:35.429Z,17.1
2022-11-09T14:42:13.475Z,16.7
2022-11-09T14:47:51.671Z,16.3
2022-11-09T14:53:34.989Z,15.8
2022-11-09T14:59:18.536Z,15.3
2022-11-09T15:05:02.565Z,15
2022-11-09T15:10:29.151Z,14.8
2022-11-09T15:16:11.811Z,14.5
2022-11-09T15:21:41.072Z,14.1
2022-11-09T15:32:14.976Z,13.8
2022-11-09T15:37:22.552Z,13.6
2022-11-09T15:42:46.289Z,13.4
2022-11-09T15:48:10.801Z,13.1
2022-11-09T15:53:34.911Z,12.8
2022-11-09T15:59:18.274Z,12.6
2022-11-09T16:04:47.312Z,12.4
2022-11-09T16:10:28.795Z,12.3
2022-11-09T16:16:11.516Z,12.1
2022-11-09T16:21:33.842Z,11.9
2022-11-09T16:27:17.003Z,11.8
2022-11-09T16:33:26.294Z,11.7
2022-11-09T16:39:37.415Z,11.4
2022-11-09T16:45:14.451Z,11.6
2022-11-09T16:50:55.356Z,11.4
2022-11-09T16:56:35.676Z,11.3
2022-11-09T17:02:27.937Z,10.8
2022-11-09T17:08:05.799Z,10.8
2022-11-09T17:13:44.219Z,10.3
2022-11-09T17:19:07.835Z,10.3
2022-11-09T17:24:48.048Z,10.1
2022-11-09T17:29:56.502Z,10.1
2022-11-09T17:35:18.367Z,9.6
2022-11-09T17:40:57.728Z,9.1
2022-11-09T17:46:20.504Z,9
2022-11-09T17:51:44.577Z,8.9
2022-11-09T17:56:38.926Z,8.9
2022-11-09T18:02:02.035Z,8.6
2022-11-09T18:07:40.084Z,8.6
2022-11-09T18:13:16.646Z,8.8
2022-11-09T18:18:54.272Z,8.9
2022-11-09T18:24:04.124Z,8.6
2022-11-09T18:29:47.993Z,8.3
2022-11-09T18:35:26.069Z,8.4
2022-11-09T18:40:50.756Z,8.3
2022-11-09T18:46:12.947Z,8.3
2022-11-09T18:51:38.587Z,8.3
2022-11-09T18:56:45.995Z,8
2022-11-09T19:01:53.941Z,7.9
2022-11-09T19:07:17.711Z,7.6
2022-11-09T19:12:40.286Z,7.4
2022-11-09T19:18:02.679Z,7.4
2022-11-09T19:23:09.938Z,7.4
2022-11-09T19:28:37.503Z,7.3
2022-11-09T19:33:51.376Z,7.1
2022-11-09T19:40:23.986Z,7.1
2022-11-09T19:46:03.500Z,6.9
2022-11-09T19:51:10.263Z,6.8
2022-11-09T20:01:56.926Z,6.6
2022-11-09T20:07:35.700Z,6.5
2022-11-09T20:13:15.103Z,6.6
2022-11-09T20:18:37.724Z,6.6
2022-11-09T20:24:00.420Z,6.5
2022-11-09T20:29:06.903Z,6.6
2022-11-09T20:34:00.891Z,6.6
2022-11-09T20:44:35.901Z,6.5
2022-11-09T20:50:52.980Z,6.6
2022-11-09T20:55:35.092Z,6.4
2022-11-09T21:00:26.223Z,6.2
2022-11-09T21:05:16.964Z,6
2022-11-09T21:10:11.348Z,5.9
2022-11-09T21:14:46.792Z,6
2022-11-09T21:19:53.441Z,5.8
2022-11-09T21:25:02.755Z,5.6
2022-11-09T21:30:09.682Z,5.8
2022-11-09T21:35:16.564Z,5.6
2022-11-09T21:40:23.321Z,5.6
2022-11-09T21:45:45.293Z,5.7
2022-11-09T21:51:07.219Z,5.7
2022-11-09T21:55:57.542Z,5.6
2022-11-09T22:01:04.596Z,5.6
2022-11-09T22:05:56.408Z,5.6
2022-11-09T22:11:34.704Z,5.5
2022-11-09T22:16:41.691Z,5.6
2022-11-09T22:21:32.219Z,5.6
2022-11-09T22:27:16.376Z,5.6
2022-11-09T22:32:38.552Z,5.6
2022-11-09T22:38:00.573Z,5.8
2022-11-09T22:48:19.215Z,5.4
2022-11-09T22:54:00.608Z,5.4
2022-11-09T22:59:07.303Z,5.3
2022-11-09T23:04:45.464Z,5.4
2022-11-09T23:10:07.012Z,5.3
2022-11-09T23:15:43.945Z,5.2
2022-11-09T23:21:08.811Z,5.1
2022-11-09T23:26:46.260Z,5.1
2022-11-09T23:32:23.707Z,4.9
2022-11-09T23:37:52.533Z,4.8
2022-11-09T23:43:29.389Z,4.5
2022-11-09T23:49:09.669Z,4.4
2022-11-09T23:54:15.994Z,4.1
2022-11-09T23:59:24.527Z,3.9
